createdAt,value
2023-11-15T00:01:38.991Z,99042.98
2023-11-15T00:04:09.146Z,99036.73
2023-11-15T00:06:37.664Z,99035.10
2023-11-15T00:09:06.808Z,99028.36
2023-11-15T00:11:35.926Z,99023.05
2023-11-15T00:14:04.706Z,99021.52
2023-11-15T00:16:33.300Z,99022.07
2023-11-15T00:19:03.870Z,99024.83
2023-11-15T00:21:32.644Z,99021.33
2023-11-15T00:24:01.154Z,99018.38
2023-11-15T00:26:30.112Z,99024.11
2023-11-15T00:28:59.454Z,99028.84
2023-11-15T00:31:28.526Z,99026.86
2023-11-15T00:33:57.377Z,99031.77
2023-11-15T00:36:26.077Z,99029.99
2023-11-15T00:38:54.897Z,99029.48
2023-11-15T00:41:23.347Z,99030.77
2023-11-15T00:43:52.213Z,99029.98
2023-11-15T00:46:20.913Z,99034.33
2023-11-15T00:48:49.405Z,99035.92
2023-11-15T00:51:17.908Z,99030.38
2023-11-15T00:53:46.616Z,99032.03
2023-11-15T00:56:15.808Z,99035.17
2023-11-15T00:58:45.405Z,99033.48
2023-11-15T01:01:14.809Z,99035.20
2023-11-15T01:03:47.545Z,99035.47
2023-11-15T01:06:16.589Z,99034.88
2023-11-15T01:08:45.751Z,99033.27
2023-11-15T01:11:14.455Z,99030.23
2023-11-15T01:13:43.234Z,99029.30
2023-11-15T01:16:11.931Z,99031.30
2023-11-15T01:18:41.549Z,99030.33
2023-11-15T01:21:11.820Z,99028.39
2023-11-15T01:23:40.638Z,99029.52
2023-11-15T01:26:09.251Z,99030.15
2023-11-15T01:28:37.692Z,99029.75
2023-11-15T01:31:07.596Z,99029.71
2023-11-15T01:33:35.983Z,99031.13
2023-11-15T01:36:06.259Z,99029.55
2023-11-15T01:38:37.015Z,99033.08
2023-11-15T01:41:06.971Z,99033.48
2023-11-15T01:43:35.638Z,99031.30
2023-11-15T01:46:07.537Z,99030.76
2023-11-15T01:48:36.988Z,99034.48
2023-11-15T01:51:06.306Z,99034.39
2023-11-15T01:53:34.707Z,99034.60
2023-11-15T01:56:04.098Z,99033.77
2023-11-15T01:58:32.682Z,99034.98
2023-11-15T02:01:01.922Z,99035.52
2023-11-15T02:03:30.785Z,99035.71
2023-11-15T02:06:00.028Z,99032.52
2023-11-15T02:08:29.449Z,99030.02
2023-11-15T02:10:58.492Z,99034.36
2023-11-15T02:13:28.287Z,99035.14
2023-11-15T02:15:57.391Z,99028.50
2023-11-15T02:18:26.518Z,99035.55
2023-11-15T02:20:55.191Z,99038.06
2023-11-15T02:23:24.341Z,99034.77
2023-11-15T02:25:52.940Z,99036.70
2023-11-15T02:28:21.437Z,99039.23
2023-11-15T02:30:50.424Z,99040.17
2023-11-15T02:33:19.373Z,99043.15
2023-11-15T02:35:48.308Z,99050.77
2023-11-15T02:38:16.680Z,99048.27
2023-11-15T02:40:46.056Z,99055.60
2023-11-15T02:43:14.742Z,99053.98
2023-11-15T02:45:44.037Z,99050.83
2023-11-15T02:48:12.606Z,99057.02
2023-11-15T02:50:40.994Z,99058.75
2023-11-15T02:53:08.506Z,99059.35
2023-11-15T02:55:36.833Z,99060.48
2023-11-15T02:58:05.485Z,99059.71
2023-11-15T03:00:33.921Z,99059.38
2023-11-15T03:03:02.840Z,99063.11
2023-11-15T03:05:32.044Z,99062.81
2023-11-15T03:08:00.941Z,99062.41
2023-11-15T03:10:29.506Z,99067.15
2023-11-15T03:12:58.145Z,99072.27
2023-11-15T03:15:26.696Z,99073.34
2023-11-15T03:17:55.269Z,99073.14
2023-11-15T03:20:24.358Z,99074.71
2023-11-15T03:22:52.854Z,99076.20
2023-11-15T03:25:21.898Z,99081.53
2023-11-15T03:27:51.425Z,99083.71
2023-11-15T03:30:20.176Z,99083.87
2023-11-15T03:32:48.591Z,99088.18
2023-11-15T03:35:19.197Z,99090.80
2023-11-15T03:37:47.613Z,99089.59
2023-11-15T03:40:16.154Z,99092.75
2023-11-15T03:42:44.532Z,99093.02
2023-11-15T03:45:12.260Z,99092.64
2023-11-15T03:47:41.077Z,99094.55
2023-11-15T03:50:12.179Z,99095.59
2023-11-15T03:52:40.858Z,99099.80
2023-11-15T03:55:09.945Z,99096.88
2023-11-15T03:57:38.437Z,99096.40
2023-11-15T04:00:11.026Z,99097.16
2023-11-15T04:02:41.577Z,99099.05
2023-11-15T04:05:10.815Z,99094.37
2023-11-15T04:07:42.287Z,99094.63
2023-11-15T04:10:11.555Z,99093.81
2023-11-15T04:12:40.273Z,99094.48
2023-11-15T04:15:09.979Z,99090.45
2023-11-15T04:17:38.611Z,99090.95
2023-11-15T04:20:10.806Z,99091.55
2023-11-15T04:22:39.373Z,99087.20
2023-11-15T04:25:08.974Z,99088.57
2023-11-15T04:27:37.534Z,99090.95
2023-11-15T04:30:10.332Z,99091.10
2023-11-15T04:32:39.879Z,99088.77
2023-11-15T04:35:09.670Z,99090.72
2023-11-15T04:37:38.580Z,99091.91
2023-11-15T04:40:10.820Z,99091.84
2023-11-15T04:42:39.271Z,99091.20
2023-11-15T04:45:10.444Z,99095.29
2023-11-15T04:47:38.991Z,99093.60
2023-11-15T04:50:09.125Z,99093.65
2023-11-15T04:52:37.617Z,99095.25
2023-11-15T04:55:06.883Z,99095.30
2023-11-15T04:57:35.620Z,99097.67
2023-11-15T05:00:10.334Z,99095.06
2023-11-15T05:02:38.853Z,99097.91
2023-11-15T05:05:08.136Z,99094.13
2023-11-15T05:07:37.962Z,99094.50
2023-11-15T05:10:09.924Z,99098.61
2023-11-15T05:12:38.345Z,99101.48
2023-11-15T05:15:08.213Z,99106.23
2023-11-15T05:17:37.147Z,99106.29
2023-11-15T05:20:07.817Z,99110.44
2023-11-15T05:22:36.506Z,99110.52
2023-11-15T05:25:06.683Z,99113.40
2023-11-15T05:27:35.046Z,99115.25
2023-11-15T05:30:02.620Z,99113.21
2023-11-15T05:32:31.215Z,99114.32
2023-11-15T05:34:59.942Z,99118.48
2023-11-15T05:37:28.261Z,99119.56
2023-11-15T05:39:55.907Z,99119.80
2023-11-15T05:42:24.643Z,99119.73
2023-11-15T05:44:52.995Z,99121.20
2023-11-15T05:47:21.589Z,99120.08
2023-11-15T05:49:49.110Z,99125.11
2023-11-15T05:52:17.576Z,99129.52
2023-11-15T05:54:47.364Z,99130.44
2023-11-15T05:57:16.071Z,99133.27
2023-11-15T05:59:44.484Z,99134.88
2023-11-15T06:02:12.798Z,99139.60
2023-11-15T06:04:40.446Z,99137.22
2023-11-15T06:07:09.909Z,99141.34
2023-11-15T06:09:38.263Z,99141.77
2023-11-15T06:12:06.680Z,99142.04
2023-11-15T06:14:35.059Z,99146.34
2023-11-15T06:17:02.602Z,99145.52
2023-11-15T06:19:32.308Z,99146.00
2023-11-15T06:22:01.086Z,99151.85
2023-11-15T06:24:29.899Z,99153.23
2023-11-15T06:26:58.373Z,99156.77
2023-11-15T06:29:26.732Z,99154.48
2023-11-15T06:31:54.891Z,99156.51
2023-11-15T06:34:23.470Z,99157.30
2023-11-15T06:36:55.805Z,99158.25
2023-11-15T06:39:24.119Z,99162.55
2023-11-15T06:41:51.632Z,99163.74
2023-11-15T06:44:20.037Z,99163.17
2023-11-15T06:46:48.697Z,99167.35
2023-11-15T06:49:17.865Z,99168.11
2023-11-15T06:51:50.331Z,99166.48
2023-11-15T06:54:18.985Z,99171.06
2023-11-15T06:56:49.033Z,99174.17
2023-11-15T06:59:17.751Z,99179.98
2023-11-15T07:01:48.830Z,99177.62
2023-11-15T07:04:17.758Z,99180.83
2023-11-15T07:06:46.478Z,99182.17
2023-11-15T07:09:16.332Z,99186.29
2023-11-15T07:11:45.790Z,99186.84
2023-11-15T07:14:15.837Z,99188.20
2023-11-15T07:16:47.874Z,99187.31
2023-11-15T07:19:16.420Z,99190.84
2023-11-15T07:21:45.049Z,99194.06
2023-11-15T07:24:14.073Z,99194.63
2023-11-15T07:26:42.572Z,99195.36
2023-11-15T07:29:13.684Z,99199.11
2023-11-15T07:31:42.737Z,99194.08
2023-11-15T07:34:11.222Z,99198.92
2023-11-15T07:36:39.652Z,99202.30
2023-11-15T07:39:08.066Z,99202.44
2023-11-15T07:41:36.874Z,99208.52
2023-11-15T07:44:06.371Z,99207.91
2023-11-15T07:46:35.263Z,99208.81
2023-11-15T07:49:04.125Z,99209.98
2023-11-15T07:51:32.919Z,99211.69
2023-11-15T07:54:02.697Z,99212.34
2023-11-15T07:56:31.260Z,99213.68
2023-11-15T07:58:59.611Z,99216.61
2023-11-15T08:01:27.999Z,99223.77
2023-11-15T08:03:56.582Z,99221.97
2023-11-15T08:06:25.575Z,99229.65
2023-11-15T08:08:54.897Z,99235.08
2023-11-15T08:11:24.778Z,99236.30
2023-11-15T08:13:56.241Z,99235.59
2023-11-15T08:16:29.353Z,99232.50
2023-11-15T08:18:57.991Z,99237.21
2023-11-15T08:21:26.375Z,99242.12
2023-11-15T08:23:54.758Z,99244.69
2023-11-15T08:26:23.284Z,99243.90
2023-11-15T08:28:51.804Z,99253.53
2023-11-15T08:31:24.041Z,99256.91
2023-11-15T08:33:53.947Z,99258.15
2023-11-15T08:36:22.943Z,99259.13
2023-11-15T08:38:51.629Z,99255.79
2023-11-15T08:41:19.996Z,99259.69
2023-11-15T08:43:48.666Z,99260.80
2023-11-15T08:46:17.797Z,99261.63
2023-11-15T08:48:46.321Z,99262.07
2023-11-15T08:51:18.010Z,99266.56
2023-11-15T08:53:47.989Z,99270.11
2023-11-15T08:56:16.540Z,99274.84
2023-11-15T08:58:45.348Z,99281.70
2023-11-15T09:01:13.895Z,99283.36
2023-11-15T09:03:43.206Z,99282.56
2023-11-15T09:06:12.683Z,99279.50
2023-11-15T09:08:42.447Z,99278.88
2023-11-15T09:11:13.034Z,99283.23
2023-11-15T09:13:41.338Z,99288.39
2023-11-15T09:16:13.139Z,99289.09
2023-11-15T09:18:43.144Z,99296.87
2023-11-15T09:21:11.790Z,99296.91
2023-11-15T09:23:41.863Z,99294.13
2023-11-15T09:26:15.739Z,99291.42
2023-11-15T09:28:45.406Z,99291.20
2023-11-15T09:31:14.049Z,99295.83
2023-11-15T09:33:42.616Z,99294.89
2023-11-15T09:36:12.175Z,99297.86
2023-11-15T09:38:41.088Z,99299.64
2023-11-15T09:41:13.497Z,99297.84
2023-11-15T09:43:42.233Z,99292.80
2023-11-15T09:46:12.941Z,99294.58
2023-11-15T09:51:15.161Z,99295.52
2023-11-15T09:53:44.699Z,99297.45
2023-11-15T09:56:14.911Z,99297.17
2023-11-15T09:58:43.382Z,99303.52
2023-11-15T10:01:12.765Z,99303.00
2023-11-15T10:03:42.138Z,99308.20
2023-11-15T10:06:11.204Z,99307.56
2023-11-15T10:08:52.349Z,99305.55
2023-11-15T10:11:21.686Z,99309.46
2023-11-15T10:13:52.061Z,99303.89
2023-11-15T10:16:24.115Z,99306.17
2023-11-15T10:18:53.555Z,99300.41
2023-11-15T10:21:23.323Z,99306.71
2023-11-15T10:23:54.909Z,99305.53
2023-11-15T10:26:39.147Z,99307.80
2023-11-15T10:29:13.149Z,99304.10
2023-11-15T10:31:52.066Z,99307.88
2023-11-15T10:34:23.829Z,99309.01
2023-11-15T10:37:07.770Z,99307.75
2023-11-15T10:39:41.064Z,99315.59
2023-11-15T10:42:13.567Z,99310.89
2023-11-15T10:44:42.913Z,99317.52
2023-11-15T10:47:13.101Z,99318.96
2023-11-15T10:49:44.445Z,99323.86
2023-11-15T10:52:14.440Z,99326.35
2023-11-15T10:54:43.662Z,99327.02
2023-11-15T10:57:13.128Z,99326.21
2023-11-15T10:59:41.781Z,99325.40
2023-11-15T11:02:10.660Z,99331.98
2023-11-15T11:04:39.511Z,99333.48
2023-11-15T11:07:14.172Z,99335.67
2023-11-15T11:09:48.017Z,99331.98
2023-11-15T11:12:23.249Z,99336.23
2023-11-15T11:15:25.554Z,99339.13
2023-11-15T11:18:04.701Z,99337.77
2023-11-15T11:20:36.451Z,99338.65
2023-11-15T11:23:11.028Z,99340.89
2023-11-15T11:25:39.875Z,99343.34
2023-11-15T11:28:12.440Z,99344.83
2023-11-15T11:30:41.397Z,99345.08
2023-11-15T11:33:16.282Z,99345.45
2023-11-15T11:35:46.561Z,99348.54
2023-11-15T11:38:42.496Z,99350.21
2023-11-15T11:41:13.295Z,99358.45
2023-11-15T11:43:42.423Z,99363.91
2023-11-15T11:46:16.036Z,99367.36
2023-11-15T11:48:44.680Z,99369.78
2023-11-15T11:51:14.992Z,99370.73
2023-11-15T11:53:45.757Z,99376.40
2023-11-15T11:56:14.705Z,99382.02
2023-11-15T11:58:43.948Z,99383.87
2023-11-15T12:01:13.559Z,99379.37
2023-11-15T12:03:48.042Z,99378.34
2023-11-15T12:06:18.341Z,99383.25
2023-11-15T12:08:49.910Z,99384.14
2023-11-15T12:11:22.430Z,99386.98
2023-11-15T12:13:51.707Z,99390.67
2023-11-15T12:16:21.952Z,99394.11
2023-11-15T12:19:13.166Z,99395.82
2023-11-15T12:21:44.347Z,99394.95
2023-11-15T12:24:13.802Z,99396.74
2023-11-15T12:26:47.236Z,99397.97
2023-11-15T12:29:20.441Z,99394.76
2023-11-15T12:31:50.105Z,99399.36
2023-11-15T12:34:18.643Z,99405.35
2023-11-15T12:36:48.761Z,99408.38
2023-11-15T12:39:17.296Z,99407.15
2023-11-15T12:41:47.319Z,99409.17
2023-11-15T12:44:17.238Z,99407.98
2023-11-15T12:46:45.781Z,99411.83
2023-11-15T12:49:14.919Z,99414.45
2023-11-15T12:51:47.574Z,99417.66
2023-11-15T12:54:17.040Z,99421.55
2023-11-15T12:56:45.476Z,99427.61
2023-11-15T12:59:14.932Z,99431.36
2023-11-15T13:01:46.530Z,99434.10
2023-11-15T13:04:15.870Z,99434.04
2023-11-15T13:06:44.823Z,99437.65
2023-11-15T13:09:15.954Z,99435.67
2023-11-15T13:11:45.175Z,99440.70
2023-11-15T13:14:16.884Z,99448.23
2023-11-15T13:16:45.408Z,99456.67
2023-11-15T13:19:14.943Z,99463.02
2023-11-15T13:21:45.626Z,99466.48
2023-11-15T13:24:13.965Z,99474.20
2023-11-15T13:26:44.002Z,99479.58
2023-11-15T13:29:12.588Z,99489.45
2023-11-15T13:31:43.605Z,99487.10
2023-11-15T13:34:14.528Z,99488.36
2023-11-15T13:36:42.860Z,99495.05
2023-11-15T13:39:12.958Z,99503.45
2023-11-15T13:41:42.241Z,99505.13
2023-11-15T13:44:10.629Z,99515.50
2023-11-15T13:46:38.386Z,99517.51
2023-11-15T13:49:07.060Z,99521.27
2023-11-15T13:51:35.416Z,99524.80
2023-11-15T13:54:03.024Z,99530.65
2023-11-15T13:56:31.838Z,99536.60
2023-11-15T13:59:00.142Z,99543.43
2023-11-15T14:01:28.919Z,99549.36
2023-11-15T14:03:57.386Z,99554.27
2023-11-15T14:06:26.584Z,99561.16
2023-11-15T14:08:59.035Z,99564.61
2023-11-15T14:11:29.486Z,99572.24
2023-11-15T14:13:57.827Z,99576.80
2023-11-15T14:16:26.072Z,99583.05
2023-11-15T14:18:55.107Z,99591.23
2023-11-15T14:21:24.315Z,99594.79
2023-11-15T14:23:52.925Z,99604.56
2023-11-15T14:26:21.400Z,99612.99
2023-11-15T14:28:49.980Z,99616.45
2023-11-15T14:31:18.386Z,99621.16
2023-11-15T14:33:47.114Z,99630.06
2023-11-15T14:36:17.792Z,99635.59
2023-11-15T14:38:49.595Z,99638.30
2023-11-15T14:41:19.249Z,99646.87
2023-11-15T14:43:47.693Z,99653.77
2023-11-15T14:46:17.427Z,99659.95
2023-11-15T14:48:46.517Z,99665.14
2023-11-15T14:51:15.094Z,99670.88
2023-11-15T14:53:53.238Z,99677.68
2023-11-15T14:56:22.595Z,99679.98
2023-11-15T14:58:54.073Z,99690.89
2023-11-15T15:01:24.183Z,99692.42
2023-11-15T15:03:53.014Z,99701.95
2023-11-15T15:06:21.521Z,99705.98
2023-11-15T15:08:50.385Z,99709.81
2023-11-15T15:11:18.708Z,99713.69
2023-11-15T15:13:47.012Z,99722.52
2023-11-15T15:16:15.833Z,99727.50
2023-11-15T15:18:44.170Z,99736.66
2023-11-15T15:21:11.688Z,99740.43
2023-11-15T15:23:40.003Z,99744.30
2023-11-15T15:26:08.229Z,99749.31
2023-11-15T15:28:36.581Z,99753.70
2023-11-15T15:31:06.652Z,99762.98
2023-11-15T15:33:35.200Z,99767.20
2023-11-15T15:36:04.263Z,99775.05
2023-11-15T15:38:32.799Z,99778.95
2023-11-15T15:41:04.417Z,99786.73
2023-11-15T15:43:32.727Z,99795.63
2023-11-15T15:46:01.142Z,99804.34
2023-11-15T15:48:29.591Z,99809.96
2023-11-15T15:50:58.023Z,99818.55
2023-11-15T15:53:26.856Z,99826.02
2023-11-15T15:55:57.515Z,99832.38
2023-11-15T15:58:25.926Z,99838.92
2023-11-15T16:00:53.646Z,99843.98
2023-11-15T16:03:21.982Z,99846.69
2023-11-15T16:05:50.739Z,99854.45
2023-11-15T16:08:19.108Z,99857.77
2023-11-15T16:10:47.407Z,99863.98
2023-11-15T16:13:15.952Z,99865.96
2023-11-15T16:15:44.589Z,99870.21
2023-11-15T16:18:12.943Z,99877.27
2023-11-15T16:20:40.668Z,99882.36
2023-11-15T16:23:09.573Z,99889.61
2023-11-15T16:25:38.635Z,99888.67
2023-11-15T16:28:07.130Z,99887.95
2023-11-15T16:30:34.949Z,99893.60
2023-11-15T16:33:03.442Z,99900.45
2023-11-15T16:35:32.090Z,99903.13
2023-11-15T16:38:00.714Z,99910.14
2023-11-15T16:40:29.065Z,99914.70
2023-11-15T16:42:57.401Z,99918.85
2023-11-15T16:45:28.038Z,99919.45
2023-11-15T16:47:56.802Z,99924.48
2023-11-15T16:50:25.256Z,99926.41
2023-11-15T16:52:52.758Z,99934.08
2023-11-15T16:55:21.476Z,99938.17
2023-11-15T16:57:50.064Z,99944.65
2023-11-15T17:00:20.886Z,99948.19
2023-11-15T17:02:50.257Z,99951.89
2023-11-15T17:05:20.446Z,99960.47
2023-11-15T17:07:48.935Z,99963.35
2023-11-15T17:10:16.397Z,99968.75
2023-11-15T17:12:44.688Z,99977.19
2023-11-15T17:15:12.737Z,99983.73
2023-11-15T17:17:41.910Z,99989.47
2023-11-15T17:20:12.012Z,99998.98
2023-11-15T17:22:40.795Z,100009.17
2023-11-15T17:25:19.052Z,100017.03
2023-11-15T17:27:49.086Z,100022.16
2023-11-15T17:30:18.754Z,100027.10
2023-11-15T17:32:47.728Z,100035.09
2023-11-15T17:35:16.433Z,100041.45
2023-11-15T17:37:44.853Z,100050.63
2023-11-15T17:40:15.704Z,100056.83
2023-11-15T17:42:43.970Z,100061.73
2023-11-15T17:45:13.011Z,100065.92
2023-11-15T17:47:42.331Z,100069.81
2023-11-15T17:50:11.242Z,100076.52
2023-11-15T17:52:40.979Z,100081.90
2023-11-15T17:55:14.302Z,100089.52
2023-11-15T17:57:44.108Z,100092.88
2023-11-15T18:00:13.774Z,100096.52
2023-11-15T18:02:42.326Z,100100.86
2023-11-15T18:05:12.920Z,100109.38
2023-11-15T18:07:41.640Z,100114.20
2023-11-15T18:10:13.622Z,100119.24
2023-11-15T18:12:42.686Z,100121.84
2023-11-15T18:15:12.902Z,100123.96
2023-11-15T18:17:42.280Z,100132.70
2023-11-15T18:20:12.863Z,100140.89
2023-11-15T18:22:41.504Z,100150.36
2023-11-15T18:25:12.488Z,100152.23
2023-11-15T18:27:43.390Z,100156.11
2023-11-15T18:30:13.036Z,100157.96
2023-11-15T18:32:43.085Z,100156.55
2023-11-15T18:35:11.868Z,100162.33
2023-11-15T18:37:40.721Z,100168.46
2023-11-15T18:40:12.287Z,100169.88
2023-11-15T18:42:42.386Z,100177.17
2023-11-15T18:45:11.710Z,100180.25
2023-11-15T18:47:41.349Z,100183.83
2023-11-15T18:50:12.305Z,100183.23
2023-11-15T18:52:41.649Z,100185.35
2023-11-15T18:55:12.500Z,100189.25
2023-11-15T18:57:44.491Z,100190.55
2023-11-15T19:00:18.758Z,100193.73
2023-11-15T19:02:47.976Z,100195.30
2023-11-15T19:05:17.343Z,100197.59
2023-11-15T19:07:46.257Z,100205.56
2023-11-15T19:10:17.227Z,100205.82
2023-11-15T19:12:47.743Z,100210.90
2023-11-15T19:15:16.373Z,100213.21
2023-11-15T19:17:49.797Z,100217.80
2023-11-15T19:20:20.392Z,100225.11
2023-11-15T19:22:51.007Z,100224.79
2023-11-15T19:25:19.584Z,100230.30
2023-11-15T19:27:47.990Z,100236.00
2023-11-15T19:30:16.963Z,100238.93
2023-11-15T19:32:46.175Z,100240.48
2023-11-15T19:35:17.410Z,100245.73
2023-11-15T19:37:46.711Z,100250.09
2023-11-15T19:40:15.626Z,100252.10
2023-11-15T19:42:44.208Z,100248.09
2023-11-15T19:45:12.670Z,100252.91
2023-11-15T19:47:41.658Z,100256.95
2023-11-15T19:50:11.990Z,100258.83
2023-11-15T19:52:41.344Z,100264.38
2023-11-15T19:55:11.903Z,100270.75
2023-11-15T19:57:41.022Z,100276.62
2023-11-15T20:00:13.148Z,100274.46
2023-11-15T20:02:46.476Z,100279.42
2023-11-15T20:05:17.242Z,100278.90
2023-11-15T20:07:46.064Z,100278.52
2023-11-15T20:10:13.594Z,100288.04
2023-11-15T20:12:43.195Z,100289.79
2023-11-15T20:15:13.206Z,100295.33
2023-11-15T20:17:42.198Z,100300.13
2023-11-15T20:20:14.701Z,100301.42
2023-11-15T20:22:50.553Z,100305.01
2023-11-15T20:25:21.526Z,100305.71
2023-11-15T20:27:50.265Z,100305.38
2023-11-15T20:30:21.568Z,100304.72
2023-11-15T20:32:53.517Z,100307.55
2023-11-15T20:35:24.287Z,100310.90
2023-11-15T20:37:53.045Z,100320.61
2023-11-15T20:40:22.171Z,100320.17
2023-11-15T20:42:50.744Z,100326.94
2023-11-15T20:45:18.438Z,100333.40
2023-11-15T20:47:47.187Z,100338.03
2023-11-15T20:50:15.912Z,100340.69
2023-11-15T20:52:44.423Z,100342.86
2023-11-15T20:55:14.340Z,100341.16
2023-11-15T20:57:43.060Z,100340.11
2023-11-15T21:00:14.913Z,100340.12
2023-11-15T21:02:46.302Z,100340.11
2023-11-15T21:05:15.793Z,100343.00
2023-11-15T21:07:45.176Z,100347.36
2023-11-15T21:10:16.059Z,100347.42
2023-11-15T21:12:46.566Z,100353.36
2023-11-15T21:15:16.287Z,100361.17
2023-11-15T21:17:45.279Z,100361.23
2023-11-15T21:20:15.011Z,100362.67
2023-11-15T21:22:44.374Z,100365.27
2023-11-15T21:25:13.125Z,100368.81
2023-11-15T21:27:42.860Z,100377.66
2023-11-15T21:30:13.245Z,100383.22
2023-11-15T21:32:42.369Z,100388.42
2023-11-15T21:35:11.666Z,100389.59
2023-11-15T21:37:44.536Z,100391.00
2023-11-15T21:40:16.441Z,100393.25
2023-11-15T21:42:47.684Z,100397.60
2023-11-15T21:45:17.382Z,100395.69
2023-11-15T21:47:46.501Z,100405.09
2023-11-15T21:50:15.802Z,100406.66
2023-11-15T21:52:44.998Z,100410.27
2023-11-15T21:55:13.500Z,100417.46
2023-11-15T21:57:42.218Z,100417.05
2023-11-15T22:00:16.168Z,100425.08
2023-11-15T22:02:44.941Z,100428.61
2023-11-15T22:05:13.683Z,100426.76
2023-11-15T22:07:43.016Z,100428.81
2023-11-15T22:10:13.025Z,100425.36
2023-11-15T22:12:41.531Z,100430.02
2023-11-15T22:15:11.238Z,100431.23
2023-11-15T22:17:40.779Z,100431.47
2023-11-15T22:20:12.126Z,100431.66
2023-11-15T22:22:43.519Z,100436.34
2023-11-15T22:25:12.361Z,100438.77
2023-11-15T22:27:40.771Z,100442.36
2023-11-15T22:30:11.943Z,100445.98
2023-11-15T22:32:41.222Z,100449.39
2023-11-15T22:35:12.138Z,100449.35
2023-11-15T22:37:40.844Z,100448.28
2023-11-15T22:40:11.861Z,100450.48
2023-11-15T22:42:40.536Z,100453.04
2023-11-15T22:45:10.515Z,100454.61
2023-11-15T22:47:39.047Z,100456.42
2023-11-15T22:50:07.785Z,100460.47
2023-11-15T22:52:36.191Z,100463.85
2023-11-15T22:55:06.246Z,100465.34
2023-11-15T22:57:34.736Z,100474.42
2023-11-15T23:00:05.220Z,100476.17
2023-11-15T23:02:34.051Z,100477.38
2023-11-15T23:05:03.442Z,100481.29
2023-11-15T23:07:32.023Z,100481.80
2023-11-15T23:10:00.617Z,100488.91
2023-11-15T23:12:29.031Z,100487.00
2023-11-15T23:14:56.597Z,100493.10
2023-11-15T23:17:25.982Z,100497.85
2023-11-15T23:19:54.666Z,100499.83
2023-11-15T23:22:23.265Z,100503.00
2023-11-15T23:24:51.584Z,100504.25
2023-11-15T23:27:20.785Z,100498.91
2023-11-15T23:29:49.202Z,100498.96
2023-11-15T23:32:20.307Z,100495.81
2023-11-15T23:34:48.726Z,100494.41
2023-11-15T23:37:17.291Z,100496.17
2023-11-15T23:39:47.939Z,100504.20
2023-11-15T23:42:16.478Z,100502.66
2023-11-15T23:44:44.117Z,100500.95
2023-11-15T23:47:12.500Z,100500.73
2023-11-15T23:49:41.076Z,100498.91
2023-11-15T23:52:10.185Z,100502.55
2023-11-15T23:54:38.773Z,100498.86
2023-11-15T23:57:08.700Z,100500.42
2023-11-15T23:59:37.193Z,100508.06
